Historyczne dane pomiarowe

Dodano dane terminowe – wersja testowa.

Dane z okresu 1951-2019

Wersja bazy: 1.34 [2019-03-16, lista zmian], aktualizacja planowana na 2019-04-15

Dane meteo z obszaru Polski uzyskane na podstawie danych udostępnionych przez Instytut Meteorologii i Gospodarki Wodnej – Państwowy Instytut Badawczy.

 

Wybierz Datę:    

       

TemperaturaWilgotnośćWiatrCiśnienieOpadyŚniegCzas trwania zjawisk
 Stacja t tx tn tng RH VA  wxwx mslp ppp RRR   cm mm wxwxwxwxwxwxwx
1961-08-14 14.1 19.5 10.2 7.0-- 3.3 1.3---- 0.9------------
1961-08-13 14.5 17.3 12.1 10.5-- 3.0 2.7---- 0.0------------
1961-08-12 16.7 20.7 15.0 12.3-- 6.0 0.7---- 0.0------------
1961-08-11 17.2 20.2 16.5 16.6-- 6.3 0.3---- 4.6------------
1961-08-10 19.5 25.2 16.0 14.5-- 6.0 1.3---- 20.4------------
1961-08-09 19.3 23.9 16.1 13.9-- 4.3 0.7---- 0.9------------
1961-08-08 18.7 21.4 8.0 5.7-- 3.3 3.0---- 0.0------------
1961-08-07 17.5 21.2 15.5 15.0-- 5.0 1.0---- 0.8------------
1961-08-06 22.3 29.4 17.2 14.9-- 3.0 2.3---- 2.5------------
1961-08-05 19.4 24.8 15.0 12.4-- 4.0 1.7---- 0.0------------
1961-08-04 14.9 16.3 9.2 6.3-- 7.0 2.0---- 0.6------------
1961-08-03 13.0 19.0 11.3 9.7-- 6.0 1.3---- 0.9------------
1961-08-02 15.9 20.1 11.2 7.7-- 8.0 1.7---- 1.5------------
1961-08-01 14.7 19.2 11.2 10.8-- 4.0 2.7---- 0.1------------
1961-07-31 13.4 15.7 11.7 12.2-- 8.0 5.3---- 21.7------------
1961-07-30 14.3 17.5 10.6 9.6-- 6.3 2.3---- 12.7------------
1961-07-29 13.8 16.4 10.7 9.1-- 6.3 1.7---- 0.0------------
1961-07-28 15.2 17.0 14.0 11.5-- 7.3 2.3---- 1.9------------
1961-07-27 18.4 22.9 15.0 11.7-- 5.0 2.0---- 5.0------------
1961-07-26 19.6 24.4 14.2 12.3-- 6.7 3.0---- 0.0------------
1961-07-25 14.8 17.9 12.5 11.4-- 7.0 2.0---- 0.0------------
1961-07-24 14.2 15.9 12.4 10.6-- 7.0 2.7---- 0.0------------
1961-07-23 14.3 16.2 12.9 12.3-- 7.7 3.3---- 0.0------------
1961-07-22 14.8 17.0 13.5 12.9-- 7.7 2.7---- 1.1------------
1961-07-21 14.7 16.2 13.2 13.2-- 7.3 2.3---- 6.6------------
1961-07-20 15.8 20.1 12.2 10.9-- 5.3 2.3---- 4.0------------
1961-07-19 14.9 20.4 12.1 11.4-- 5.7 1.3---- 15.0------------
1961-07-18 14.6 19.5 12.7 12.0-- 6.7 3.0---- 1.6------------
1961-07-17 14.4 16.6 10.1 7.7-- 5.7 1.0---- 0.7------------
1961-07-16 16.3 22.8 13.6 14.1-- 4.7 1.3---- 0.6------------
1961-07-15 17.8 23.9 13.7 11.6-- 5.3 2.3---- 0.0------------
1961-07-14 16.8 19.6 12.3 11.4-- 5.3 3.7---- 1.1------------
1961-07-13 19.1 25.8 15.6 15.2-- 6.0 1.7---- 6.0------------
1961-07-12 20.1 25.8 14.4 12.5-- 2.7 1.0---- 0.0------------
1961-07-11 17.3 20.8 11.0 8.8-- 4.7 1.3---- 10.6------------
1961-07-10 12.8 16.4 10.8 9.4-- 6.0 1.3---- 0.9------------
1961-07-09 14.7 17.4 13.3 13.1-- 7.3 3.3---- 9.0------------
1961-07-08 17.4 22.9 10.1 6.9-- 5.7 2.0---- 5.4------------
1961-07-07 13.5 19.5 10.4 9.2-- 5.3 2.0---- 0.0------------
1961-07-06 12.0 16.9 8.4 6.1-- 7.0 3.0---- 4.7------------
1961-07-05 11.4 15.9 10.6 9.4-- 4.7 2.7---- 8.3------------
1961-07-04 15.5 19.4 13.7 11.2-- 7.7 3.0---- 4.4------------
1961-07-03 23.3 33.8 18.2 14.1-- 2.7 2.0---- 0.0------------
1961-07-02 24.7 32.6 14.5 8.6-- 0.0 0.3---- 0.0------------
1961-07-01 22.0 29.9 11.5 7.7-- 0.0 0.3---- 0.0------------
1961-06-30 20.6 26.9 10.9 7.2-- 0.0 0.7---- 0.0------------
1961-06-29 16.2 22.0 11.6 8.9-- 1.3 2.0---- 0.0------------
1961-06-28 15.6 19.4 12.3 13.5-- 4.0 4.3---- 0.0------------
1961-06-27 20.2 25.9 17.5 16.0-- 6.3 3.0---- 0.8------------
1961-06-26 24.3 29.9 13.7 9.2-- 0.0 2.3---- 0.0------------
1961-06-25 23.3 29.2 15.3 11.3-- 0.0 2.0---- 0.0------------
1961-06-24 19.1 25.4 13.7 10.9-- 3.0 2.3---- 0.0------------
1961-06-23 18.5 22.2 14.8 11.6-- 2.7 3.7---- 0.0------------
1961-06-22 18.3 23.6 8.0 4.7-- 2.0 2.0---- 0.0------------
1961-06-21 14.3 21.0 8.2 5.8-- 5.0 1.0---- 0.0------------
1961-06-20 14.1 20.2 9.7 6.6-- 0.7 1.0---- 0.0------------
1961-06-19 16.4 22.4 14.5 14.8-- 4.0 3.0---- 0.0------------
1961-06-18 22.3 27.9 14.9 13.0-- 3.0 4.0---- 0.0------------
1961-06-17 18.9 23.5 10.3 7.0-- 3.0 2.0---- 0.0------------
1961-06-16 14.1 18.4 9.0 7.0-- 4.3 1.7---- 0.0------------
361.2 ms

 

Źródłem pochodzenia danych jest Instytut Meteorologii i Gospodarki Wodnej – Państwowy Instytut Badawczy. Dane Instytutu Meteorologii i Gospodarki Wodnej – Państwowego Instytutu Badawczego zostały przetworzone.

Dane źródłowe można odnaleźć na stronie https://dane.imgw.pl